Time;durP1;ratioP1;P1;durP2;ratioP2;P2;SDS_P1;SDS_P2;PMS_P1;PMS_P2;Temp;Humidity;BMP_temperature;BMP_pressure;BME280_temperature;BME280_humidity;BME280_pressure;Samples;Min_cycle;Max_cycle;Signal;HPM_P1;HPM_P2
2022/03/29 00:00:38;;;;;;;14.68;11.43;;;;;;;14.72;44.03;99840.38;6310803;22;20003;-85
2022/03/29 00:03:04;;;;;;;15.88;12.52;;;;;;;14.10;43.91;99742.13;6310087;22;20019;-86
2022/03/29 00:05:29;;;;;;;15.95;11.27;;;;;;;14.44;44.12;99821.84;6337812;22;20119;-85
2022/03/29 00:07:55;;;;;;;14.88;12.00;;;;;;;13.85;44.45;99729.31;6337579;22;20365;-85
2022/03/29 00:10:20;;;;;;;16.45;13.27;;;;;;;13.97;44.42;99750.84;6337668;22;20005;-86
2022/03/29 00:12:45;;;;;;;16.98;12.45;;;;;;;14.05;44.42;99763.13;6337547;22;20440;-85
2022/03/29 00:15:11;;;;;;;15.30;12.73;;;;;;;14.40;44.52;99825.06;6337589;22;19998;-85
2022/03/29 00:20:59;;;;;;;17.98;12.95;;;;;;;14.16;44.92;99816.53;6337623;22;20080;-85
2022/03/29 00:23:24;;;;;;;15.57;12.63;;;;;;;14.25;44.93;99843.78;6310025;22;19998;-87
2022/03/29 00:25:50;;;;;;;15.32;11.98;;;;;;;13.89;45.10;99777.53;6337903;22;20061;-85
2022/03/29 00:28:15;;;;;;;17.13;12.98;;;;;;;13.54;44.95;99743.00;6337562;22;20058;-85
2022/03/29 00:30:41;;;;;;;16.50;13.40;;;;;;;13.62;45.20;99720.81;6337743;22;20372;-85
2022/03/29 00:33:07;;;;;;;15.48;13.65;;;;;;;13.79;45.27;99761.13;6337810;22;20022;-85
2022/03/29 00:35:33;;;;;;;14.82;12.65;;;;;;;14.19;45.07;99836.59;6310240;22;20003;-85
2022/03/29 00:37:58;;;;;;;15.55;13.70;;;;;;;13.48;45.25;99708.44;6337681;22;20010;-85
2022/03/29 00:40:24;;;;;;;18.38;14.15;;;;;;;14.02;45.13;99801.50;6337502;22;20006;-86
2022/03/29 00:42:50;;;;;;;17.50;14.10;;;;;;;13.26;45.35;99686.44;6309680;22;19995;-85
2022/03/29 00:45:15;;;;;;;18.42;14.15;;;;;;;13.19;45.67;99694.31;6336734;22;19999;-86
2022/03/29 00:47:41;;;;;;;18.45;14.25;;;;;;;13.90;45.42;99800.41;6309763;22;20001;-86
2022/03/29 00:50:08;;;;;;;16.52;13.30;;;;;;;13.45;45.69;99754.75;6309723;22;19999;-86
2022/03/29 00:52:34;;;;;;;15.07;12.40;;;;;;;13.10;46.06;99721.94;6309472;22;20056;-85
2022/03/29 00:55:00;;;;;;;16.10;13.73;;;;;;;13.40;46.19;99780.19;6309890;22;20007;-86
2022/03/29 00:57:28;;;;;;;17.25;13.43;;;;;;;13.32;46.06;99768.69;6337463;22;20481;-86
2022/03/29 00:59:54;;;;;;;17.38;13.18;;;;;;;13.26;46.29;99758.00;6337653;22;20001;-86
2022/03/29 01:02:20;;;;;;;18.08;13.85;;;;;;;11.35;46.33;99426.63;6337560;22;20448;-86
2022/03/29 01:04:45;;;;;;;16.75;13.05;;;;;;;12.93;46.21;99675.50;6337817;22;19995;-86
2022/03/29 01:07:11;;;;;;;15.57;13.38;;;;;;;12.14;46.21;99563.47;6337600;22;20044;-86
2022/03/29 01:09:36;;;;;;;15.27;12.70;;;;;;;12.62;46.21;99631.56;6309606;22;20007;-86
2022/03/29 01:12:02;;;;;;;18.15;14.02;;;;;;;12.16;46.17;99572.84;6309613;22;20440;-86
2022/03/29 01:14:28;;;;;;;19.02;14.25;;;;;;;12.94;46.57;99716.91;6337174;22;20006;-86
2022/03/29 01:19:38;;;;;;;17.33;15.25;;;;;;;13.22;46.49;99751.44;6337183;22;20462;-86
2022/03/29 01:22:07;;;;;;;18.00;15.10;;;;;;;13.01;46.24;99718.59;6337102;22;19994;-86
2022/03/29 01:24:34;;;;;;;18.83;15.43;;;;;;;13.38;46.57;99763.63;6309658;22;19999;-86
2022/03/29 01:27:02;;;;;;;22.35;16.38;;;;;;;13.02;46.33;99730.84;6337455;22;19998;-86
2022/03/29 01:29:32;;;;;;;20.27;15.38;;;;;;;13.15;46.87;99745.25;6337214;22;19999;-86
2022/03/29 01:31:58;;;;;;;21.15;14.60;;;;;;;12.58;46.75;99663.94;6337515;22;20427;-86
2022/03/29 01:34:25;;;;;;;19.95;15.05;;;;;;;12.32;46.71;99609.69;6309293;22;20002;-86
2022/03/29 01:36:51;;;;;;;19.00;15.45;;;;;;;13.20;46.61;99753.47;6309344;22;20003;-86
2022/03/29 01:39:17;;;;;;;20.23;16.65;;;;;;;13.15;47.06;99751.34;6337434;22;20450;-86
2022/03/29 01:41:42;;;;;;;21.38;16.58;;;;;;;12.31;46.95;99642.47;6337317;22;19995;-86
2022/03/29 01:44:10;;;;;;;19.67;14.50;;;;;;;13.10;47.11;99755.59;6337337;22;20070;-86
2022/03/29 01:46:35;;;;;;;18.10;14.65;;;;;;;12.25;46.88;99645.03;6337227;22;19995;-86
2022/03/29 01:49:01;;;;;;;18.48;14.13;;;;;;;12.07;47.74;99662.13;6337296;22;20394;-85
2022/03/29 01:51:27;;;;;;;14.75;12.98;;;;;;;12.63;47.68;99752.44;6337478;22;20066;-86
2022/03/29 01:54:00;;;;;;;15.70;13.40;;;;;;;12.47;48.08;99739.38;6336816;22;19994;-86
2022/03/29 01:56:27;;;;;;;16.25;13.40;;;;;;;11.45;47.85;99566.44;6336591;22;20455;-87
2022/03/29 01:58:53;;;;;;;19.85;15.05;;;;;;;12.32;47.45;99707.63;6308655;22;20669;-86
2022/03/29 02:01:18;;;;;;;22.83;14.40;;;;;;;12.12;47.79;99674.81;6336344;22;20021;-86
2022/03/29 02:03:44;;;;;;;16.65;14.27;;;;;;;12.17;47.83;99690.97;6308854;22;20061;-86
2022/03/29 02:06:09;;;;;;;16.95;13.77;;;;;;;12.39;47.69;99745.59;6336523;22;19995;-86
2022/03/29 02:08:35;;;;;;;19.63;15.23;;;;;;;12.41;48.20;99718.94;6336767;22;19998;-86
2022/03/29 02:11:00;;;;;;;17.95;13.88;;;;;;;12.04;47.76;99670.44;6308956;22;20018;-86
2022/03/29 02:13:26;;;;;;;15.57;13.88;;;;;;;10.66;47.65;99451.69;6336745;22;19994;-86
2022/03/29 02:15:52;;;;;;;19.83;13.98;;;;;;;11.11;48.38;99522.84;6336713;22;19999;-86
2022/03/29 02:18:17;;;;;;;18.20;14.57;;;;;;;11.28;48.50;99579.03;6336332;22;20337;-87
2022/03/29 02:20:43;;;;;;;17.33;14.95;;;;;;;11.88;48.68;99653.91;6336631;22;19995;-86
2022/03/29 02:23:09;;;;;;;20.00;15.10;;;;;;;12.18;48.51;99705.00;6336682;22;19999;-87
2022/03/29 02:25:36;;;;;;;19.40;14.25;;;;;;;12.23;48.41;99719.34;6336615;22;20003;-87
2022/03/29 02:28:02;;;;;;;18.02;14.15;;;;;;;11.84;47.91;99669.31;6309046;22;19991;-87
2022/03/29 02:30:28;;;;;;;17.52;13.25;;;;;;;12.15;48.11;99710.69;6336625;22;20021;-86
2022/03/29 02:32:54;;;;;;;17.35;14.35;;;;;;;11.59;48.61;99644.13;6308776;22;20083;-87
2022/03/29 02:35:20;;;;;;;19.45;15.20;;;;;;;11.51;48.54;99657.44;6336799;22;20451;-86
2022/03/29 02:37:45;;;;;;;16.50;14.07;;;;;;;11.62;48.76;99678.13;6336546;22;20097;-87
2022/03/29 02:40:13;;;;;;;19.75;14.02;;;;;;;11.96;48.79;99715.53;6309344;22;20034;-87
2022/03/29 02:42:53;;;;;;;17.38;14.77;;;;;;;11.72;48.28;99686.63;6309001;22;20001;-87
2022/03/29 02:45:20;;;;;;;18.33;14.52;;;;;;;11.69;48.26;99679.06;6308948;22;20420;-87
2022/03/29 02:47:49;;;;;;;18.65;14.98;;;;;;;11.94;48.25;99709.59;6308976;22;19999;-87
2022/03/29 02:50:15;;;;;;;16.50;14.73;;;;;;;10.81;48.30;99569.56;6309085;22;20009;-88
2022/03/29 02:52:53;;;;;;;19.90;14.80;;;;;;;11.38;49.14;99650.13;6309301;22;19995;-87
2022/03/29 02:55:20;;;;;;;18.45;14.82;;;;;;;10.96;48.90;99626.88;6308831;22;20002;-87
2022/03/29 02:57:47;;;;;;;18.85;13.52;;;;;;;11.37;48.89;99657.25;6308732;22;20006;-87
2022/03/29 03:00:17;;;;;;;17.17;15.38;;;;;;;11.13;48.76;99629.19;6336608;22;20024;-87
2022/03/29 03:02:47;;;;;;;16.42;13.70;;;;;;;10.85;48.94;99607.00;6308588;22;20098;-88
2022/03/29 03:05:13;;;;;;;18.90;13.90;;;;;;;11.41;49.15;99695.53;6308617;22;20005;-87
2022/03/29 03:07:43;;;;;;;17.92;14.93;;;;;;;10.82;48.88;99592.31;6308713;22;20057;-87
2022/03/29 03:10:09;;;;;;;16.88;15.18;;;;;;;10.52;49.50;99572.09;6337650;22;19994;-88
2022/03/29 03:12:36;;;;;;;17.83;14.63;;;;;;;10.61;49.06;99578.16;6310508;22;20402;-87
2022/03/29 03:15:03;;;;;;;17.48;15.57;;;;;;;10.88;49.20;99604.00;6310689;22;20421;-87
2022/03/29 03:17:28;;;;;;;16.77;14.10;;;;;;;10.82;49.25;99602.88;6337938;22;20359;-87
2022/03/29 03:19:54;;;;;;;18.70;14.93;;;;;;;10.58;48.78;99581.97;6338120;22;19994;-88
2022/03/29 03:22:19;;;;;;;20.00;15.77;;;;;;;10.41;49.25;99556.69;6338212;22;19999;-87
2022/03/29 03:24:45;;;;;;;18.83;15.30;;;;;;;9.44;48.96;99416.47;6338100;22;20526;-87
2022/03/29 03:27:10;;;;;;;18.02;15.23;;;;;;;10.67;49.17;99609.13;6310532;22;20026;-87
2022/03/29 03:29:35;;;;;;;21.63;15.75;;;;;;;11.17;49.39;99711.59;6338085;22;19995;-87
2022/03/29 03:32:01;;;;;;;17.45;15.20;;;;;;;10.84;48.95;99658.16;6337979;22;19995;-88
2022/03/29 03:34:26;;;;;;;17.98;15.50;;;;;;;10.29;49.58;99580.00;6310489;22;19995;-87
2022/03/29 03:36:52;;;;;;;22.27;17.25;;;;;;;9.91;49.23;99512.28;6310512;22;20463;-87
2022/03/29 03:39:18;;;;;;;22.73;16.50;;;;;;;10.33;49.48;99598.94;6310199;22;20071;-88
2022/03/29 03:41:44;;;;;;;25.33;17.48;;;;;;;10.62;49.33;99653.72;6337804;22;20432;-88
2022/03/29 03:44:11;;;;;;;21.73;18.27;;;;;;;10.35;49.59;99602.22;6337696;22;20081;-88
2022/03/29 03:46:37;;;;;;;26.52;19.50;;;;;;;10.54;49.74;99637.94;6310029;22;20056;-87
2022/03/29 03:49:02;;;;;;;20.60;17.38;;;;;;;9.75;49.48;99516.66;6310191;22;19994;-87
2022/03/29 03:51:28;;;;;;;23.00;17.88;;;;;;;10.43;49.50;99621.50;6310111;22;20029;-88
2022/03/29 03:53:53;;;;;;;23.33;16.13;;;;;;;10.23;49.76;99591.25;6310907;22;20078;-88
2022/03/29 03:56:19;;;;;;;18.98;16.55;;;;;;;10.08;49.79;99564.75;6339343;22;20449;-87
2022/03/29 03:58:44;;;;;;;18.98;16.95;;;;;;;10.47;49.74;99646.53;6311062;22;20085;-87
2022/03/29 04:01:11;;;;;;;18.27;16.20;;;;;;;10.38;49.31;99625.63;6309991;22;20046;-88
2022/03/29 04:03:37;;;;;;;19.30;16.27;;;;;;;10.20;49.48;99617.97;6310090;22;19999;-88
2022/03/29 04:06:03;;;;;;;20.48;16.70;;;;;;;10.59;49.96;99691.84;6309868;22;19999;-88
2022/03/29 04:08:29;;;;;;;21.80;17.50;;;;;;;10.32;49.85;99627.16;6310043;22;20007;-88
2022/03/29 04:10:55;;;;;;;22.00;16.25;;;;;;;10.07;49.83;99620.34;6310665;22;20059;-88
2022/03/29 04:13:21;;;;;;;22.42;17.17;;;;;;;9.62;49.91;99557.72;6310400;22;20052;-88
2022/03/29 04:15:46;;;;;;;22.08;16.95;;;;;;;9.65;50.09;99565.28;6310467;22;19995;-87
2022/03/29 04:18:12;;;;;;;22.17;17.80;;;;;;;10.25;50.09;99657.03;6310713;22;19999;-88
2022/03/29 04:20:37;;;;;;;22.48;17.40;;;;;;;10.58;49.99;99699.94;6350098;22;20034;-88
2022/03/29 04:23:03;;;;;;;26.08;18.70;;;;;;;10.64;49.77;99717.72;6325234;22;20006;-88
2022/03/29 04:25:28;;;;;;;25.45;20.50;;;;;;;9.93;49.82;99597.31;6338970;22;19998;-88
2022/03/29 04:27:54;;;;;;;25.10;20.02;;;;;;;9.75;50.05;99560.66;6338865;22;20423;-88
2022/03/29 04:30:19;;;;;;;26.55;20.92;;;;;;;10.61;50.26;99689.84;6338071;22;19999;-88
2022/03/29 04:32:45;;;;;;;32.55;21.83;;;;;;;9.54;50.03;99509.31;6337702;22;19995;-88
2022/03/29 04:35:10;;;;;;;33.80;23.25;;;;;;;10.46;50.25;99673.94;6309885;22;20450;-88
2022/03/29 04:37:36;;;;;;;29.88;22.25;;;;;;;9.91;50.10;99571.13;6309662;22;20440;-88
2022/03/29 04:40:05;;;;;;;28.83;21.25;;;;;;;10.84;49.95;99713.63;6309647;22;20048;-88
2022/03/29 04:42:30;;;;;;;29.83;21.05;;;;;;;10.38;49.76;99628.28;6337258;22;20056;-88
2022/03/29 04:44:56;;;;;;;29.45;20.92;;;;;;;10.49;49.54;99641.91;6337526;22;20440;-88
2022/03/29 04:47:21;;;;;;;30.20;22.73;;;;;;;10.56;49.49;99655.25;6337400;22;20049;-88
2022/03/29 04:49:47;;;;;;;33.67;24.75;;;;;;;10.52;49.38;99647.84;6337325;22;20009;-88
2022/03/29 04:52:13;;;;;;;31.75;23.52;;;;;;;10.62;49.31;99659.81;6309730;22;20429;-88
2022/03/29 04:54:38;;;;;;;33.72;23.85;;;;;;;10.81;49.33;99693.69;6337147;22;20052;-88
2022/03/29 04:57:04;;;;;;;33.78;22.35;;;;;;;11.08;49.11;99713.47;6337280;22;20044;-88
2022/03/29 04:59:29;;;;;;;29.98;22.25;;;;;;;10.82;49.58;99665.44;6309415;22;19999;-88
2022/03/29 05:01:55;;;;;;;32.20;19.73;;;;;;;10.54;49.18;99636.09;6336928;22;20037;-88
2022/03/29 05:04:20;;;;;;;31.75;20.83;;;;;;;10.58;48.99;99616.28;6309636;22;19998;-88
2022/03/29 05:06:45;;;;;;;36.45;24.80;;;;;;;11.04;49.02;99688.38;6309748;22;19994;-88
2022/03/29 05:09:11;;;;;;;41.17;29.38;;;;;;;11.11;49.54;99689.31;6309532;22;20002;-87
2022/03/29 05:11:36;;;;;;;49.53;37.30;;;;;;;11.29;49.09;99715.47;6309609;22;20341;-88
2022/03/29 05:14:02;;;;;;;40.78;31.75;;;;;;;10.67;48.71;99609.94;6337258;22;20002;-88
2022/03/29 05:16:27;;;;;;;44.60;32.55;;;;;;;9.76;49.16;99455.03;6337226;22;19995;-87
2022/03/29 05:18:53;;;;;;;44.42;29.33;;;;;;;10.98;48.78;99646.00;6337080;22;20360;-87
2022/03/29 05:21:18;;;;;;;40.53;28.17;;;;;;;11.44;48.57;99697.00;6309658;22;20354;-87
2022/03/29 05:23:44;;;;;;;40.90;28.60;;;;;;;11.05;48.73;99629.25;6309675;22;20003;-87
2022/03/29 05:26:09;;;;;;;53.55;27.20;;;;;;;11.40;48.71;99690.44;6337188;22;19995;-87
2022/03/29 05:28:34;;;;;;;71.65;29.23;;;;;;;11.40;48.64;99682.50;6309338;22;20084;-87
2022/03/29 05:31:00;;;;;;;41.22;26.25;;;;;;;10.65;48.32;99556.50;6309110;22;19995;-87
2022/03/29 05:33:25;;;;;;;39.72;26.83;;;;;;;11.31;48.39;99663.25;6308708;22;20001;-87
2022/03/29 05:35:51;;;;;;;38.05;27.60;;;;;;;11.20;48.16;99658.41;6337056;22;20428;-87
2022/03/29 05:38:16;;;;;;;40.83;27.15;;;;;;;10.78;47.99;99585.75;6308897;22;20396;-87
2022/03/29 05:40:41;;;;;;;38.67;28.85;;;;;;;10.61;48.22;99573.69;6308791;22;20483;-86
2022/03/29 05:43:11;;;;;;;43.35;28.70;;;;;;;11.52;48.29;99686.34;6336517;22;20009;-87
2022/03/29 05:45:37;;;;;;;41.75;31.85;;;;;;;10.92;47.94;99597.34;6336765;22;20002;-86
2022/03/29 05:50:46;;;;;;;48.33;31.95;;;;;;;11.42;47.75;99641.66;6335852;22;20504;-85
2022/03/29 05:53:12;;;;;;;51.58;34.70;;;;;;;11.19;47.47;99585.41;6336827;22;19995;-86
2022/03/29 05:55:37;;;;;;;47.70;33.03;;;;;;;11.84;47.14;99685.19;6335248;22;19995;-87
2022/03/29 05:58:03;;;;;;;41.58;30.88;;;;;;;11.84;46.79;99658.75;6307362;22;20003;-87
2022/03/29 06:00:30;;;;;;;47.38;31.33;;;;;;;11.46;46.98;99587.41;6333898;22;20009;-87
2022/03/29 06:02:56;;;;;;;46.33;31.90;;;;;;;12.27;47.06;99694.13;6308293;22;20018;-87
2022/03/29 06:05:21;;;;;;;40.17;29.10;;;;;;;11.87;46.71;99621.34;6309019;22;20003;-87
2022/03/29 06:07:47;;;;;;;41.67;29.23;;;;;;;12.19;46.45;99665.13;6309144;22;20003;-87
2022/03/29 06:10:13;;;;;;;46.40;30.40;;;;;;;11.76;45.85;99563.59;6309105;22;20007;-86
2022/03/29 06:12:39;;;;;;;50.58;32.53;;;;;;;12.05;46.18;99619.16;6308892;22;19994;-86
2022/03/29 06:15:06;;;;;;;46.05;30.10;;;;;;;12.70;46.65;99684.47;6336972;22;19994;-86
2022/03/29 06:17:32;;;;;;;41.88;29.70;;;;;;;11.92;46.19;99536.16;6336452;22;19999;-86
2022/03/29 06:19:57;;;;;;;42.35;31.45;;;;;;;12.28;45.97;99591.72;6308800;22;20006;-86
2022/03/29 06:22:23;;;;;;;44.65;32.13;;;;;;;12.93;45.71;99683.47;6336763;22;19995;-86
2022/03/29 06:24:48;;;;;;;47.45;31.20;;;;;;;12.98;45.53;99681.06;6336301;22;19994;-86
2022/03/29 06:27:14;;;;;;;42.00;30.50;;;;;;;12.50;45.56;99603.94;6336292;22;19995;-86
2022/03/29 06:29:39;;;;;;;45.15;29.88;;;;;;;12.53;45.37;99577.09;6336444;22;20348;-86
2022/03/29 06:32:05;;;;;;;46.67;30.55;;;;;;;12.63;45.58;99587.38;6308772;22;20026;-86
2022/03/29 06:34:31;;;;;;;39.97;28.58;;;;;;;13.07;45.41;99621.59;6308740;22;20067;-86
2022/03/29 06:36:56;;;;;;;39.22;25.63;;;;;;;13.28;45.20;99652.59;6336435;22;20469;-87
2022/03/29 06:39:22;;;;;;;35.15;26.58;;;;;;;13.16;45.54;99643.47;6309033;22;20010;-86
2022/03/29 06:41:48;;;;;;;43.88;28.85;;;;;;;13.52;45.25;99667.25;6309027;22;20007;-86
2022/03/29 06:44:13;;;;;;;41.58;28.13;;;;;;;13.20;45.28;99603.16;6337352;22;20356;-86
2022/03/29 06:46:42;;;;;;;41.63;27.20;;;;;;;13.23;45.23;99588.72;6311099;22;19999;-86
2022/03/29 06:49:07;;;;;;;31.85;24.35;;;;;;;13.11;45.36;99561.88;6338867;22;20026;-86
2022/03/29 06:51:34;;;;;;;41.05;23.25;;;;;;;13.93;45.35;99659.34;6310732;22;20022;-86
2022/03/29 06:54:00;;;;;;;27.40;21.75;;;;;;;12.38;45.09;99406.88;6310825;22;20352;-86
2022/03/29 06:56:26;;;;;;;25.65;19.25;;;;;;;14.10;45.24;99654.50;6310882;22;20032;-87
2022/03/29 06:58:52;;;;;;;22.00;15.38;;;;;;;13.65;45.22;99569.19;6338025;22;20124;-86
2022/03/29 07:01:17;;;;;;;16.58;13.95;;;;;;;13.98;45.10;99620.56;6305008;22;20040;-86
2022/03/29 07:03:43;;;;;;;15.80;11.45;;;;;;;13.81;45.12;99565.38;6306642;22;20424;-86
2022/03/29 07:06:08;;;;;;;14.30;9.98;;;;;;;14.46;44.97;99651.63;6306552;22;20401;-86
2022/03/29 07:08:34;;;;;;;12.32;9.23;;;;;;;14.39;44.55;99616.22;6305084;22;20003;-86
2022/03/29 07:11:21;;;;;;;11.95;10.13;;;;;;;14.59;44.58;99631.22;6305292;22;20356;-86
2022/03/29 07:13:46;;;;;;;12.30;10.18;;;;;;;14.39;43.99;99576.38;6307029;22;20432;-86
2022/03/29 07:16:14;;;;;;;11.32;10.02;;;;;;;14.80;44.20;99640.84;6305185;22;20006;-86
2022/03/29 07:18:40;;;;;;;10.57;8.85;;;;;;;14.23;43.85;99529.78;6304602;22;20007;-86
2022/03/29 07:21:06;;;;;;;11.43;9.93;;;;;;;14.74;43.82;99582.38;6305076;22;20428;-85
2022/03/29 07:23:31;;;;;;;14.43;9.95;;;;;;;14.63;43.64;99574.00;6305438;22;20005;-86
2022/03/29 07:25:57;;;;;;;12.63;9.40;;;;;;;14.77;43.36;99561.53;6306403;22;20005;-85
2022/03/29 07:28:23;;;;;;;11.98;9.32;;;;;;;14.71;43.25;99542.94;6302459;22;20003;-86
2022/03/29 07:30:49;;;;;;;15.93;9.80;;;;;;;14.68;43.12;99530.88;6304731;22;20046;-87
2022/03/29 07:33:17;;;;;;;13.68;10.32;;;;;;;14.88;42.87;99549.50;6306669;22;20424;-85
2022/03/29 07:35:42;;;;;;;12.85;10.00;;;;;;;14.72;42.74;99504.69;6304960;22;20129;-85
2022/03/29 07:38:09;;;;;;;15.95;9.68;;;;;;;14.33;42.52;99423.97;6306604;22;20043;-85
2022/03/29 07:40:35;;;;;;;16.33;10.55;;;;;;;15.74;42.13;99611.38;6306690;22;20023;-85
2022/03/29 07:43:01;;;;;;;14.32;10.18;;;;;;;15.04;41.80;99495.06;6304898;22;20033;-85
2022/03/29 07:45:27;;;;;;;16.02;12.50;;;;;;;14.12;41.62;99397.59;6304822;22;20000;-87
2022/03/29 07:47:56;;;;;;;12.10;9.23;;;;;;;15.32;41.83;99526.72;6306193;22;19996;-85
2022/03/29 07:50:22;;;;;;;12.32;10.23;;;;;;;15.99;41.53;99602.69;6304524;22;20356;-84
2022/03/29 07:52:50;;;;;;;11.35;9.10;;;;;;;15.80;41.59;99545.84;6306596;22;20051;-85
2022/03/29 07:55:16;;;;;;;10.50;8.05;;;;;;;15.29;41.31;99455.31;6306866;22;19999;-86
2022/03/29 07:57:43;;;;;;;12.48;8.68;;;;;;;16.24;40.88;99582.28;6304243;22;20475;-84
2022/03/29 08:02:55;;;;;;;10.07;8.98;;;;;;;16.39;40.81;99582.00;6334915;22;20061;-84
2022/03/29 08:05:21;;;;;;;12.07;8.93;;;;;;;16.48;40.10;99576.22;6309037;22;20001;-85
2022/03/29 08:07:47;;;;;;;11.88;9.18;;;;;;;16.48;40.12;99557.56;6339474;22;19999;-84
2022/03/29 08:10:13;;;;;;;10.93;8.30;;;;;;;16.26;39.95;99531.44;6341943;22;20031;-85
2022/03/29 08:12:43;;;;;;;10.05;7.93;;;;;;;16.71;39.57;99566.84;6312602;22;20007;-84
2022/03/29 08:15:10;;;;;;;10.73;7.80;;;;;;;16.41;39.21;99522.13;6310875;22;20007;-85
2022/03/29 08:17:36;;;;;;;11.60;8.52;;;;;;;16.39;38.96;99523.38;6334832;22;19999;-85
2022/03/29 08:20:05;;;;;;;11.20;8.23;;;;;;;16.56;38.59;99560.97;6335688;22;19998;-85
2022/03/29 08:22:34;;;;;;;10.57;8.02;;;;;;;16.69;37.93;99569.72;6308240;22;20452;-86
2022/03/29 08:25:01;;;;;;;9.80;7.93;;;;;;;16.23;37.75;99490.06;6336085;22;19991;-85
2022/03/29 08:27:26;;;;;;;8.98;7.30;;;;;;;16.78;37.75;99581.75;6309037;22;19995;-86
2022/03/29 08:29:52;;;;;;;10.30;7.78;;;;;;;16.29;37.26;99462.56;6308702;22;20005;-85
2022/03/29 08:32:18;;;;;;;11.98;8.93;;;;;;;16.81;37.24;99529.84;6308546;22;20808;-85
2022/03/29 08:34:44;;;;;;;11.10;8.55;;;;;;;17.21;37.30;99557.00;6336068;22;20056;-85
2022/03/29 08:37:09;;;;;;;13.90;11.00;;;;;;;17.34;36.37;99558.69;6308849;22;20005;-85
2022/03/29 08:39:35;;;;;;;10.15;8.60;;;;;;;17.33;35.70;99539.19;6337071;22;19998;-84
2022/03/29 08:42:14;;;;;;;9.90;7.95;;;;;;;17.42;34.62;99529.03;6335887;22;20333;-86
2022/03/29 08:44:40;;;;;;;11.50;9.02;;;;;;;17.57;35.10;99532.16;6308739;22;19994;-86
2022/03/29 08:47:11;;;;;;;11.23;9.68;;;;;;;17.13;35.26;99442.56;6309082;22;20452;-84
2022/03/29 08:49:37;;;;;;;11.82;9.07;;;;;;;17.75;34.77;99539.38;6336891;22;20001;-85
2022/03/29 08:52:04;;;;;;;18.00;8.40;;;;;;;17.89;34.68;99521.34;6335383;22;20347;-87
2022/03/29 08:54:30;;;;;;;8.60;7.70;;;;;;;17.59;34.01;99446.50;6308227;22;19999;-86
2022/03/29 08:56:55;;;;;;;12.20;8.80;;;;;;;17.67;33.63;99465.72;6308324;22;20133;-87
2022/03/29 08:59:21;;;;;;;11.23;8.02;;;;;;;18.35;32.72;99529.50;6335811;22;20419;-87
2022/03/29 09:01:47;;;;;;;10.40;7.97;;;;;;;18.43;32.05;99513.13;6334472;22;20399;-87
2022/03/29 09:04:15;;;;;;;10.23;7.60;;;;;;;18.52;31.61;99510.13;6336016;22;19998;-87
2022/03/29 09:06:50;;;;;;;7.85;7.05;;;;;;;18.83;31.34;99509.06;6335704;22;19999;-87
2022/03/29 09:09:36;;;;;;;9.82;7.90;;;;;;;18.90;29.63;99491.03;6336605;22;20021;-87
2022/03/29 09:12:13;;;;;;;9.45;6.78;;;;;;;19.12;30.23;99502.75;6337273;22;20002;-85
2022/03/29 09:14:59;;;;;;;10.35;7.57;;;;;;;19.03;30.08;99478.22;6309839;22;20030;-85
2022/03/29 09:17:41;;;;;;;8.75;7.32;;;;;;;19.50;30.31;99493.41;6336739;22;20003;-85
2022/03/29 09:20:13;;;;;;;9.98;7.57;;;;;;;19.31;29.58;99444.53;6308027;22;20067;-85
2022/03/29 09:22:42;;;;;;;10.35;6.80;;;;;;;19.82;29.27;99486.56;6308731;22;19999;-86
2022/03/29 09:25:20;;;;;;;9.68;7.35;;;;;;;19.99;28.85;99471.31;6307912;22;20003;-86
2022/03/29 09:27:53;;;;;;;8.13;6.80;;;;;;;20.20;28.68;99466.34;6336052;22;20001;-84
2022/03/29 09:30:20;;;;;;;10.05;6.90;;;;;;;19.95;28.48;99407.75;6336349;22;20073;-85
2022/03/29 09:32:53;;;;;;;8.40;7.13;;;;;;;20.51;27.17;99446.22;6308800;22;20026;-86
2022/03/29 09:35:19;;;;;;;7.50;6.60;;;;;;;20.49;27.62;99434.94;6307370;22;20003;-85
2022/03/29 09:37:45;;;;;;;9.20;7.95;;;;;;;20.37;27.61;99391.28;6336398;22;20460;-87
2022/03/29 09:40:12;;;;;;;7.35;6.07;;;;;;;20.43;27.45;99384.97;6336691;22;20031;-86
2022/03/29 09:42:40;;;;;;;10.55;7.10;;;;;;;20.39;27.00;99368.53;6337161;22;20138;-86
2022/03/29 09:45:08;;;;;;;11.93;7.57;;;;;;;20.70;26.54;99377.03;6309312;22;20329;-86
2022/03/29 09:47:34;;;;;;;9.57;6.85;;;;;;;21.26;26.87;99440.34;6336899;22;19994;-86
2022/03/29 09:50:02;;;;;;;10.05;7.88;;;;;;;21.12;26.76;99393.41;6337140;22;20496;-87
2022/03/29 09:52:34;;;;;;;13.18;7.57;;;;;;;21.17;26.32;99380.06;6337340;22;20002;-86
2022/03/29 09:55:13;;;;;;;10.10;8.02;;;;;;;21.62;25.98;99424.66;6334682;22;20011;-86
2022/03/29 09:57:44;;;;;;;9.35;6.68;;;;;;;21.75;26.06;99413.50;6336900;22;20006;-87
2022/03/29 10:00:14;;;;;;;7.87;6.50;;;;;;;21.39;26.07;99372.00;6309288;22;20006;-86
2022/03/29 10:02:41;;;;;;;10.88;7.65;;;;;;;21.98;25.75;99402.41;6309244;22;20017;-86
2022/03/29 10:05:09;;;;;;;8.55;7.13;;;;;;;21.91;25.75;99387.56;6335922;22;20444;-86
2022/03/29 10:07:43;;;;;;;8.38;6.05;;;;;;;22.11;25.55;99403.91;6336945;22;20401;-86
2022/03/29 10:10:10;;;;;;;12.25;7.55;;;;;;;21.72;25.50;99328.00;6337180;22;20079;-84
2022/03/29 10:12:36;;;;;;;9.48;7.13;;;;;;;22.37;25.35;99380.72;6309519;22;20355;-84
2022/03/29 10:15:03;;;;;;;10.57;6.60;;;;;;;22.49;25.20;99374.06;6307957;22;20010;-85
2022/03/29 10:17:29;;;;;;;8.70;7.07;;;;;;;22.62;25.42;99370.13;6336262;22;20002;-84
2022/03/29 10:19:56;;;;;;;8.02;5.90;;;;;;;22.72;25.16;99370.16;6336647;22;19999;-85
2022/03/29 10:22:21;;;;;;;9.90;6.28;;;;;;;22.63;25.09;99334.06;6309251;22;19991;-85
2022/03/29 10:24:47;;;;;;;9.85;7.13;;;;;;;22.37;24.95;99260.47;6336843;22;19999;-85
2022/03/29 10:27:16;;;;;;;11.50;7.13;;;;;;;23.17;24.40;99349.94;6308946;22;20357;-86
2022/03/29 10:29:42;;;;;;;10.50;7.18;;;;;;;22.77;24.68;99262.53;6336395;22;20022;-85
2022/03/29 10:32:10;;;;;;;14.55;8.10;;;;;;;23.12;24.93;99282.59;6308586;22;20002;-85
2022/03/29 10:34:45;;;;;;;11.20;7.45;;;;;;;22.94;23.84;99296.53;6308654;22;20009;-86
2022/03/29 10:37:23;;;;;;;10.35;7.80;;;;;;;23.07;24.75;99322.97;6336287;22;20066;-85
2022/03/29 10:39:56;;;;;;;13.65;8.15;;;;;;;23.32;24.67;99316.84;6307980;22;20082;-86
2022/03/29 10:42:36;;;;;;;13.30;7.35;;;;;;;23.49;24.51;99295.03;6305700;22;19999;-84
2022/03/29 10:45:12;;;;;;;9.73;6.85;;;;;;;23.87;24.41;99318.00;6333398;22;20018;-86
2022/03/29 10:47:39;;;;;;;10.20;5.95;;;;;;;23.74;24.05;99289.69;6308469;22;20414;-85
2022/03/29 10:50:08;;;;;;;12.35;7.15;;;;;;;23.56;23.98;99230.94;6307903;22;20005;-85
2022/03/29 10:52:48;;;;;;;12.80;6.60;;;;;;;24.17;23.69;99287.50;6308766;22;20042;-86
2022/03/29 10:55:16;;;;;;;12.80;6.35;;;;;;;24.49;23.85;99304.16;6309276;22;19995;-85
2022/03/29 10:58:03;;;;;;;14.38;6.95;;;;;;;24.44;24.52;99296.09;6337443;22;19999;-84
2022/03/29 11:00:31;;;;;;;11.77;5.78;;;;;;;24.36;24.63;99275.06;6336058;22;20006;-85
2022/03/29 11:03:20;;;;;;;10.65;5.10;;;;;;;24.38;24.55;99292.59;6306973;22;20029;-86
2022/03/29 11:06:06;;;;;;;10.00;5.75;;;;;;;24.38;24.56;99286.38;6308820;22;20010;-86
2022/03/29 11:08:35;;;;;;;14.52;5.70;;;;;;;23.87;24.79;99224.44;6336616;22;20002;-86
2022/03/29 11:11:01;;;;;;;11.43;5.47;;;;;;;23.77;24.55;99192.88;6335941;22;20022;-86
2022/03/29 11:13:29;;;;;;;12.63;8.77;;;;;;;24.38;24.89;99270.19;6307868;22;20003;-86
2022/03/29 11:16:00;;;;;;;10.82;6.57;;;;;;;24.43;24.56;99280.16;6308613;22;20033;-85
2022/03/29 11:18:31;;;;;;;10.30;6.13;;;;;;;24.42;24.47;99265.88;6308267;22;20002;-86
2022/03/29 11:21:02;;;;;;;;;;;;;;;24.42;24.55;99257.78;6309052;22;19998;-86
2022/03/29 11:23:36;;;;;;;13.70;10.20;;;;;;;24.20;24.78;99222.19;6308828;22;19970;-86
2022/03/29 11:26:13;;;;;;;13.77;8.60;;;;;;;24.57;24.74;99246.94;6336658;22;20005;-86
2022/03/29 11:28:47;;;;;;;13.65;7.03;;;;;;;24.65;24.54;99246.38;6336360;22;20386;-85
2022/03/29 11:31:13;;;;;;;10.65;5.32;;;;;;;24.31;24.25;99162.56;6336475;22;19999;-86
2022/03/29 11:33:39;;;;;;;11.07;6.97;;;;;;;24.57;23.84;99173.25;6309219;22;20025;-87